Private Wetterstation Wechselburg
Wetterdaten: Woche 03.07.23 - 09.07.23 (KW27)
Datum Zeit Temp. +2m Bodentemp. Temp.+5cm Temp. Wind Windchill X Diff Temp. Feuchte +2m Feuchte +5cm Luftdruck Regen Wind Richtung Sonnenschein Taupunkt Windchill Windben
03.07.2023 00:00 15,3 C 20,2 C 14,6 C 14,9 C 14,1 C 0,0 C 76 % 70 % 1011,8 hPa 0,0 l/m 0,0 km/h (0 Bft) N 0,00 h 11,0 C 14,1 C 0,0 km/h (0 Bft)
03.07.2023 01:00 14,5 C 20,2 C 14,3 C 14,3 C 13,9 C 0,0 C 79 % 73 % 1011,5 hPa 0,0 l/m 0,0 km/h (0 Bft) N 0,00 h 11,0 C 13,9 C 0,0 km/h (0 Bft)
03.07.2023 02:00 14,5 C 20,1 C 14,4 C 14,3 C 14,0 C 0,0 C 82 % 75 % 1011,1 hPa 0,0 l/m 0,0 km/h (0 Bft) N 0,00 h 11,4 C 14,0 C 0,0 km/h (0 Bft)
03.07.2023 03:00 14,5 C 20,0 C 14,5 C 14,4 C 14,2 C 0,0 C 83 % 76 % 1010,7 hPa 0,0 l/m 0,0 km/h (0 Bft) N 0,00 h 11,7 C 14,2 C 0,0 km/h (0 Bft)
03.07.2023 04:00 14,7 C 19,8 C 14,7 C 14,8 C 14,7 C 0,1 C 80 % 71 % 1010,5 hPa 0,0 l/m 0,1 km/h (0 Bft) N 0,00 h 11,3 C 14,7 C 1,1 km/h (1 Bft)
03.07.2023 05:00 15,1 C 19,6 C 14,7 C 15,0 C 14,9 C 0,0 C 73 % 64 % 1010,8 hPa 0,0 l/m 0,1 km/h (0 Bft) N 0,00 h 10,3 C 14,9 C 0,7 km/h (0 Bft)
03.07.2023 06:00 15,3 C 19,4 C 15,0 C 15,6 C 15,6 C 0,3 C 72 % 63 % 1011,2 hPa 0,0 l/m 0,3 km/h (0 Bft) N 0,00 h 10,2 C 15,6 C 1,3 km/h (1 Bft)
03.07.2023 07:00 16,2 C 19,3 C 15,9 C 19,0 C 19,0 C 2,8 C 72 % 63 % 1011,5 hPa 0,0 l/m 0,6 km/h (0 Bft) SO 0,18 h 11,1 C 19,0 C 1,6 km/h (1 Bft)
03.07.2023 08:00 18,0 C 19,3 C 17,1 C 23,2 C 23,2 C 5,2 C 67 % 60 % 1012,0 hPa 0,0 l/m 0,3 km/h (0 Bft) N 1,00 h 11,8 C 23,2 C 0,0 km/h (0 Bft)
03.07.2023 09:00 19,1 C 19,3 C 18,0 C 23,0 C 23,0 C 3,9 C 60 % 54 % 1011,9 hPa 0,0 l/m 0,0 km/h (0 Bft) N 1,00 h 11,2 C 23,0 C 0,0 km/h (0 Bft)
03.07.2023 10:00 19,6 C 19,3 C 19,1 C 23,0 C 23,0 C 3,4 C 57 % 50 % 1012,0 hPa 0,0 l/m 0,0 km/h (0 Bft) N 0,83 h 10,9 C 23,0 C 0,0 km/h (0 Bft)
03.07.2023 11:00 19,8 C 19,3 C 19,3 C 23,0 C 23,0 C 3,2 C 58 % 52 % 1012,1 hPa 0,0 l/m 0,0 km/h (0 Bft) N 0,58 h 11,3 C 23,0 C 0,0 km/h (0 Bft)
03.07.2023 12:00 20,9 C 19,3 C 20,5 C 23,0 C 23,0 C 2,1 C 55 % 49 % 1012,2 hPa 0,0 l/m 0,0 km/h (0 Bft) N 0,00 h 11,4 C 23,0 C 0,0 km/h (0 Bft)
03.07.2023 13:00 21,9 C 19,4 C 21,3 C 23,0 C 23,0 C 1,1 C 51 % 47 % 1012,2 hPa 0,0 l/m 0,0 km/h (0 Bft) N 0,00 h 11,3 C 23,0 C 0,0 km/h (0 Bft)
03.07.2023 14:00 22,3 C 19,5 C 21,9 C 23,0 C 23,0 C 0,7 C 50 % 45 % 1012,2 hPa 0,0 l/m 0,0 km/h (0 Bft) N 0,00 h 11,2 C 23,0 C 0,0 km/h (0 Bft)
03.07.2023 15:00 21,9 C 19,5 C 21,5 C 23,0 C 23,0 C 1,1 C 50 % 46 % 1012,3 hPa 0,0 l/m 0,0 km/h (0 Bft) N 0,00 h 11,1 C 23,0 C 0,0 km/h (0 Bft)
03.07.2023 16:00 21,9 C 19,5 C 21,3 C 23,3 C 23,3 C 1,4 C 48 % 44 % 1012,6 hPa 0,0 l/m 0,0 km/h (0 Bft) N 0,00 h 10,3 C 23,3 C 0,0 km/h (0 Bft)
03.07.2023 17:00 21,6 C 19,6 C 20,8 C 22,8 C 22,8 C 1,3 C 45 % 41 % 1012,8 hPa 0,0 l/m 0,0 km/h (0 Bft) N 0,00 h 9,1 C 22,8 C 0,0 km/h (0 Bft)
03.07.2023 18:00 21,3 C 19,6 C 20,2 C 22,1 C 22,1 C 0,8 C 47 % 44 % 1012,8 hPa 0,0 l/m 0,0 km/h (0 Bft) N 0,00 h 9,6 C 22,1 C 0,0 km/h (0 Bft)
03.07.2023 19:00 21,1 C 19,7 C 19,4 C 22,0 C 22,0 C 0,9 C 51 % 49 % 1012,7 hPa 0,0 l/m 0,0 km/h (0 Bft) N 0,00 h 10,5 C 22,0 C 0,0 km/h (0 Bft)
03.07.2023 20:00 19,0 C 19,8 C 17,4 C 18,6 C 17,7 C 0,0 C 59 % 57 % 1012,9 hPa 0,0 l/m 0,0 km/h (0 Bft) N 0,00 h 10,8 C 17,7 C 0,0 km/h (0 Bft)
03.07.2023 21:00 16,4 C 20,0 C 15,1 C 15,8 C 14,6 C 0,0 C 69 % 65 % 1013,3 hPa 0,0 l/m 0,0 km/h (0 Bft) N 0,00 h 10,8 C 14,6 C 0,0 km/h (0 Bft)
03.07.2023 22:00 14,5 C 19,9 C 13,5 C 13,9 C 12,7 C 0,0 C 76 % 70 % 1013,3 hPa 0,0 l/m 0,0 km/h (0 Bft) N 0,00 h 10,3 C 12,7 C 0,0 km/h (0 Bft)
03.07.2023 23:00 13,1 C 19,9 C 12,3 C 12,5 C 11,4 C 0,0 C 79 % 72 % 1013,3 hPa 0,0 l/m 0,0 km/h (0 Bft) N 0,00 h 9,6 C 11,4 C 0,0 km/h (0 Bft)
04.07.2023 00:00 12,3 C 19,7 C 12,0 C 11,9 C 11,1 C 0,0 C 82 % 73 % 1013,5 hPa 0,0 l/m 0,0 km/h (0 Bft) N 0,00 h 9,2 C 11,1 C 0,0 km/h (0 Bft)
04.07.2023 01:00 12,6 C 19,6 C 12,2 C 12,4 C 11,9 C 0,0 C 81 % 72 % 1013,3 hPa 0,0 l/m 0,0 km/h (0 Bft) N 0,00 h 9,5 C 11,9 C 0,0 km/h (0 Bft)
04.07.2023 02:00 13,1 C 19,4 C 12,8 C 12,9 C 12,6 C 0,0 C 81 % 73 % 1013,4 hPa 0,0 l/m 0,2 km/h (0 Bft) N 0,00 h 9,9 C 12,6 C 0,2 km/h (0 Bft)
04.07.2023 03:00 14,8 C 19,3 C 14,0 C 14,6 C 14,3 C 0,0 C 77 % 69 % 1013,4 hPa 0,0 l/m 0,4 km/h (0 Bft) N 0,00 h 10,7 C 14,3 C 1,3 km/h (1 Bft)
04.07.2023 04:00 14,8 C 19,1 C 14,2 C 14,7 C 14,3 C 0,0 C 77 % 71 % 1013,6 hPa 0,0 l/m 0,2 km/h (0 Bft) N 0,00 h 10,9 C 14,3 C 0,4 km/h (0 Bft)
04.07.2023 05:00 15,3 C 19,1 C 14,9 C 15,5 C 15,5 C 0,2 C 79 % 73 % 1014,1 hPa 0,0 l/m 0,3 km/h (0 Bft) N 0,00 h 11,7 C 15,5 C 0,6 km/h (0 Bft)
04.07.2023 06:00 17,1 C 19,1 C 16,7 C 22,2 C 22,2 C 5,1 C 78 % 72 % 1014,7 hPa 0,0 l/m 0,5 km/h (0 Bft) N 1,00 h 13,3 C 22,2 C 2,0 km/h (1 Bft)
04.07.2023 07:00 19,4 C 19,2 C 17,6 C 27,0 C 27,0 C 7,6 C 71 % 67 % 1015,1 hPa 0,0 l/m 0,2 km/h (0 Bft) N 1,00 h 13,9 C 27,0 C 1,1 km/h (0 Bft)
04.07.2023 08:00 19,9 C 19,2 C 18,4 C 25,9 C 25,9 C 6,0 C 63 % 60 % 1015,1 hPa 0,0 l/m 0,4 km/h (0 Bft) N 1,00 h 12,7 C 25,9 C 0,7 km/h (0 Bft)
04.07.2023 09:00 20,2 C 19,2 C 19,1 C 26,9 C 26,9 C 6,7 C 60 % 55 % 1015,1 hPa 0,0 l/m 0,2 km/h (0 Bft) N 1,00 h 12,2 C 26,9 C 0,4 km/h (0 Bft)
04.07.2023 10:00 21,4 C 19,3 C 20,3 C 27,7 C 27,7 C 6,3 C 57 % 54 % 1015,2 hPa 0,0 l/m 0,3 km/h (0 Bft) N 1,00 h 12,4 C 27,7 C 0,2 km/h (0 Bft)
04.07.2023 11:00 22,5 C 19,3 C 21,4 C 28,1 C 28,1 C 5,6 C 52 % 49 % 1015,1 hPa 0,0 l/m 0,4 km/h (0 Bft) N 0,50 h 12,2 C 28,1 C 1,1 km/h (0 Bft)
04.07.2023 13:00 24,7 C 19,4 C 23,1 C 29,0 C 29,0 C 4,3 C 45 % 44 % 1014,8 hPa 0,0 l/m 0,0 km/h (0 Bft) N 1,75 h 11,8 C 29,0 C 0,0 km/h (0 Bft)
04.07.2023 14:00 25,0 C 19,6 C 24,6 C 29,0 C 29,0 C 4,0 C 42 % 41 % 1014,6 hPa 0,0 l/m 0,0 km/h (0 Bft) N 1,00 h 11,2 C 29,0 C 0,0 km/h (0 Bft)
04.07.2023 15:00 24,9 C 19,7 C 24,5 C 29,0 C 29,0 C 4,1 C 42 % 40 % 1014,6 hPa 0,0 l/m 0,0 km/h (0 Bft) N 1,00 h 11,0 C 29,0 C 0,0 km/h (0 Bft)
04.07.2023 16:00 24,7 C 19,8 C 24,3 C 29,0 C 29,0 C 4,3 C 42 % 40 % 1014,6 hPa 0,0 l/m 0,0 km/h (0 Bft) N 1,00 h 10,8 C 29,0 C 0,0 km/h (0 Bft)
04.07.2023 17:00 25,0 C 19,9 C 24,5 C 29,0 C 29,0 C 4,0 C 41 % 39 % 1014,6 hPa 0,0 l/m 0,0 km/h (0 Bft) N 1,00 h 10,8 C 29,0 C 0,0 km/h (0 Bft)
04.07.2023 18:00 24,4 C 20,0 C 23,1 C 29,0 C 29,0 C 4,6 C 42 % 42 % 1014,7 hPa 0,0 l/m 0,0 km/h (0 Bft) N 1,00 h 10,7 C 29,0 C 0,0 km/h (0 Bft)
04.07.2023 19:00 24,0 C 20,2 C 22,3 C 29,0 C 29,0 C 5,0 C 43 % 43 % 1014,7 hPa 0,0 l/m 0,0 km/h (0 Bft) N 1,00 h 10,7 C 29,0 C 0,0 km/h (0 Bft)
04.07.2023 20:00 22,6 C 20,3 C 20,5 C 29,0 C 29,0 C 6,4 C 47 % 46 % 1015,2 hPa 0,0 l/m 0,0 km/h (0 Bft) N 1,00 h 10,6 C 29,0 C 0,0 km/h (0 Bft)
04.07.2023 21:00 19,2 C 20,4 C 17,3 C 23,4 C 22,8 C 4,6 C 58 % 55 % 1015,6 hPa 0,0 l/m 0,0 km/h (0 Bft) N 0,25 h 10,7 C 22,8 C 0,0 km/h (0 Bft)
04.07.2023 22:00 16,5 C 20,3 C 15,1 C 15,8 C 14,4 C 0,0 C 66 % 63 % 1016,1 hPa 0,0 l/m 0,0 km/h (0 Bft) N 0,00 h 10,2 C 14,4 C 0,0 km/h (0 Bft)
04.07.2023 23:00 14,6 C 20,3 C 13,6 C 14,0 C 12,7 C 0,0 C 75 % 69 % 1015,7 hPa 0,0 l/m 0,0 km/h (0 Bft) N 0,00 h 10,1 C 12,7 C 0,0 km/h (0 Bft)
05.07.2023 00:00 13,1 C 20,2 C 12,4 C 12,6 C 11,6 C 0,0 C 79 % 72 % 1015,4 hPa 0,0 l/m 0,0 km/h (0 Bft) N 0,00 h 9,6 C 11,6 C 0,0 km/h (0 Bft)
05.07.2023 01:00 12,3 C 20,3 C 11,7 C 11,8 C 10,7 C 0,0 C 81 % 74 % 1015,2 hPa 0,0 l/m 0,0 km/h (0 Bft) N 0,00 h 9,1 C 10,7 C 0,0 km/h (0 Bft)
05.07.2023 02:00 11,7 C 20,2 C 11,5 C 11,4 C 10,7 C 0,0 C 83 % 76 % 1014,4 hPa 0,0 l/m 0,0 km/h (0 Bft) N 0,00 h 9,0 C 10,7 C 0,0 km/h (0 Bft)
05.07.2023 03:00 11,7 C 20,0 C 11,6 C 11,4 C 10,9 C 0,0 C 85 % 76 % 1013,9 hPa 0,0 l/m 0,0 km/h (0 Bft) N 0,00 h 9,2 C 10,9 C 0,0 km/h (0 Bft)
05.07.2023 04:00 12,1 C 19,8 C 12,4 C 12,0 C 12,0 C 0,0 C 86 % 77 % 1013,2 hPa 0,0 l/m 0,0 km/h (0 Bft) N 0,00 h 9,8 C 12,0 C 0,0 km/h (0 Bft)
05.07.2023 05:00 12,8 C 19,7 C 12,8 C 12,9 C 12,8 C 0,1 C 87 % 77 % 1012,7 hPa 0,0 l/m 0,0 km/h (0 Bft) N 0,17 h 10,6 C 12,8 C 0,0 km/h (0 Bft)
05.07.2023 06:00 13,3 C 19,5 C 13,6 C 14,1 C 14,1 C 0,8 C 87 % 77 % 1012,2 hPa 0,0 l/m 0,0 km/h (0 Bft) N 0,00 h 11,1 C 14,1 C 0,0 km/h (0 Bft)
05.07.2023 07:00 16,4 C 19,2 C 17,0 C 21,7 C 21,7 C 5,2 C 84 % 72 % 1012,0 hPa 0,0 l/m 0,3 km/h (0 Bft) S 0,83 h 13,7 C 21,7 C 0,3 km/h (0 Bft)
05.07.2023 08:00 21,0 C 19,2 C 20,2 C 25,7 C 25,7 C 4,7 C 63 % 57 % 1012,2 hPa 0,0 l/m 1,4 km/h (1 Bft) S 0,73 h 13,6 C 25,7 C 7,1 km/h (2 Bft)
05.07.2023 09:00 20,9 C 19,2 C 19,8 C 21,9 C 21,9 C 1,0 C 61 % 58 % 1012,0 hPa 0,0 l/m 0,7 km/h (0 Bft) SW 0,08 h 13,2 C 21,9 C 2,5 km/h (1 Bft)
05.07.2023 10:00 20,7 C 19,3 C 20,1 C 22,1 C 22,1 C 1,3 C 64 % 60 % 1012,0 hPa 0,0 l/m 0,4 km/h (0 Bft) N 0,00 h 13,6 C 22,1 C 0,0 km/h (0 Bft)
05.07.2023 11:00 21,6 C 19,4 C 21,3 C 22,9 C 22,9 C 1,3 C 65 % 60 % 1012,4 hPa 0,0 l/m 0,2 km/h (0 Bft) N 0,00 h 14,6 C 22,9 C 0,0 km/h (0 Bft)
05.07.2023 12:00 22,2 C 19,5 C 22,0 C 22,9 C 22,9 C 0,7 C 64 % 59 % 1012,3 hPa 0,0 l/m 0,0 km/h (0 Bft) N 0,00 h 15,1 C 22,9 C 0,0 km/h (0 Bft)
05.07.2023 13:00 21,6 C 19,6 C 21,5 C 22,9 C 22,9 C 1,3 C 64 % 59 % 1012,4 hPa 0,0 l/m 0,0 km/h (0 Bft) N 0,00 h 14,6 C 22,9 C 0,0 km/h (0 Bft)
05.07.2023 14:00 21,4 C 19,7 C 21,3 C 22,9 C 22,9 C 1,5 C 64 % 57 % 1012,6 hPa 0,0 l/m 0,0 km/h (0 Bft) N 0,00 h 14,3 C 22,9 C 0,0 km/h (0 Bft)
05.07.2023 15:00 22,7 C 19,8 C 23,1 C 23,1 C 22,9 C 0,4 C 55 % 49 % 1012,5 hPa 0,0 l/m 0,0 km/h (0 Bft) N 0,00 h 12,9 C 22,9 C 0,0 km/h (0 Bft)
05.07.2023 16:00 23,7 C 19,8 C 24,1 C 23,4 C 22,9 C 0,0 C 45 % 40 % 1013,2 hPa 0,0 l/m 0,0 km/h (0 Bft) N 0,00 h 10,9 C 22,9 C 0,0 km/h (0 Bft)
05.07.2023 17:00 23,4 C 19,8 C 23,9 C 23,5 C 23,3 C 0,3 C 45 % 39 % 1013,9 hPa 0,0 l/m 0,1 km/h (0 Bft) N 0,00 h 10,7 C 23,3 C 0,0 km/h (0 Bft)
05.07.2023 18:00 23,4 C 19,9 C 23,2 C 24,5 C 24,5 C 1,1 C 44 % 38 % 1014,3 hPa 0,0 l/m 0,2 km/h (0 Bft) N 0,00 h 10,3 C 24,5 C 1,4 km/h (1 Bft)
05.07.2023 19:00 22,6 C 19,9 C 22,0 C 24,4 C 24,4 C 1,7 C 43 % 37 % 1014,9 hPa 0,0 l/m 0,2 km/h (0 Bft) N 0,00 h 9,3 C 24,4 C 0,0 km/h (0 Bft)
05.07.2023 20:00 21,2 C 19,9 C 20,3 C 21,8 C 21,8 C 0,7 C 45 % 38 % 1015,6 hPa 0,0 l/m 0,0 km/h (0 Bft) N 0,25 h 8,9 C 21,8 C 0,0 km/h (0 Bft)
05.07.2023 21:00 19,0 C 19,9 C 17,4 C 18,3 C 17,1 C 0,0 C 51 % 44 % 1016,5 hPa 0,0 l/m 0,0 km/h (0 Bft) N 0,00 h 8,6 C 17,1 C 0,0 km/h (0 Bft)
05.07.2023 22:00 16,6 C 19,8 C 15,2 C 15,9 C 14,7 C 0,0 C 59 % 50 % 1016,9 hPa 0,0 l/m 0,0 km/h (0 Bft) N 0,00 h 8,4 C 14,7 C 0,0 km/h (0 Bft)
05.07.2023 23:00 14,4 C 19,8 C 13,4 C 13,9 C 12,8 C 0,0 C 67 % 57 % 1017,4 hPa 0,0 l/m 0,0 km/h (0 Bft) N 0,00 h 8,3 C 12,8 C 0,0 km/h (0 Bft)
06.07.2023 00:00 13,2 C 19,7 C 12,7 C 12,8 C 12,1 C 0,0 C 71 % 59 % 1017,6 hPa 0,0 l/m 0,0 km/h (0 Bft) N 0,00 h 8,0 C 12,1 C 0,0 km/h (0 Bft)
06.07.2023 01:00 12,5 C 19,5 C 12,0 C 12,0 C 11,1 C 0,0 C 73 % 61 % 1017,8 hPa 0,0 l/m 0,0 km/h (0 Bft) N 0,00 h 7,8 C 11,1 C 0,0 km/h (0 Bft)
06.07.2023 02:00 11,8 C 19,3 C 11,5 C 11,5 C 10,6 C 0,0 C 76 % 63 % 1018,0 hPa 0,0 l/m 0,0 km/h (0 Bft) N 0,00 h 7,7 C 10,6 C 0,0 km/h (0 Bft)
06.07.2023 03:00 11,7 C 19,2 C 11,4 C 11,4 C 10,9 C 0,0 C 76 % 63 % 1018,1 hPa 0,0 l/m 0,0 km/h (0 Bft) N 0,00 h 7,6 C 10,9 C 0,0 km/h (0 Bft)
06.07.2023 04:00 11,1 C 19,1 C 10,6 C 10,7 C 10,0 C 0,0 C 77 % 66 % 1018,5 hPa 0,0 l/m 0,0 km/h (0 Bft) N 0,00 h 7,3 C 10,0 C 0,0 km/h (0 Bft)
06.07.2023 05:00 10,3 C 19,1 C 9,7 C 9,8 C 8,8 C 0,0 C 80 % 70 % 1019,2 hPa 0,0 l/m 0,0 km/h (0 Bft) N 0,00 h 6,9 C 8,8 C 0,0 km/h (0 Bft)
06.07.2023 06:00 10,2 C 18,9 C 10,1 C 10,4 C 10,0 C 0,3 C 83 % 72 % 1019,5 hPa 0,0 l/m 0,0 km/h (0 Bft) N 0,00 h 7,4 C 10,0 C 0,0 km/h (0 Bft)
06.07.2023 07:00 13,0 C 18,6 C 12,9 C 21,5 C 21,5 C 8,4 C 84 % 69 % 1019,8 hPa 0,0 l/m 0,0 km/h (0 Bft) N 0,83 h 10,4 C 21,5 C 0,0 km/h (0 Bft)
06.07.2023 08:00 18,3 C 18,5 C 15,3 C 29,6 C 29,6 C 11,2 C 68 % 65 % 1019,9 hPa 0,0 l/m 0,0 km/h (0 Bft) N 1,00 h 12,2 C 29,6 C 0,4 km/h (0 Bft)
06.07.2023 09:00 19,6 C 18,5 C 16,8 C 28,3 C 28,3 C 8,8 C 60 % 59 % 1020,1 hPa 0,0 l/m 0,1 km/h (0 Bft) N 1,00 h 11,5 C 28,3 C 1,1 km/h (0 Bft)
06.07.2023 10:00 19,7 C 18,6 C 18,0 C 27,7 C 27,7 C 8,0 C 57 % 54 % 1020,2 hPa 0,0 l/m 0,0 km/h (0 Bft) N 1,00 h 11,0 C 27,7 C 0,0 km/h (0 Bft)
06.07.2023 11:00 20,8 C 18,6 C 19,2 C 29,0 C 29,0 C 8,2 C 54 % 50 % 1020,3 hPa 0,0 l/m 0,1 km/h (0 Bft) N 1,00 h 11,2 C 29,0 C 0,4 km/h (0 Bft)
06.07.2023 12:00 22,4 C 18,7 C 20,5 C 29,6 C 29,6 C 7,1 C 50 % 48 % 1020,2 hPa 0,0 l/m 0,1 km/h (0 Bft) N 1,00 h 11,5 C 29,6 C 0,6 km/h (0 Bft)
06.07.2023 13:00 23,8 C 18,8 C 21,5 C 28,4 C 28,4 C 4,6 C 45 % 45 % 1020,0 hPa 0,0 l/m 0,1 km/h (0 Bft) N 0,68 h 11,1 C 28,4 C 0,0 km/h (0 Bft)
06.07.2023 14:00 24,8 C 18,9 C 22,6 C 29,7 C 29,7 C 4,9 C 43 % 45 % 1019,9 hPa 0,0 l/m 0,2 km/h (0 Bft) N 0,77 h 11,3 C 29,7 C 0,7 km/h (0 Bft)
06.07.2023 15:00 24,3 C 19,1 C 23,3 C 29,5 C 29,5 C 5,2 C 44 % 43 % 1019,8 hPa 0,0 l/m 0,1 km/h (0 Bft) N 0,92 h 11,2 C 29,5 C 0,8 km/h (0 Bft)
06.07.2023 16:00 24,3 C 19,2 C 24,0 C 32,0 C 32,0 C 7,6 C 43 % 41 % 1019,7 hPa 0,0 l/m 0,1 km/h (0 Bft) N 1,00 h 10,9 C 32,0 C 0,0 km/h (0 Bft)
06.07.2023 17:00 24,8 C 19,4 C 24,6 C 32,8 C 32,8 C 8,0 C 42 % 41 % 1019,5 hPa 0,0 l/m 0,0 km/h (0 Bft) N 1,00 h 10,9 C 32,8 C 0,0 km/h (0 Bft)
06.07.2023 18:00 24,6 C 19,5 C 23,5 C 32,8 C 32,8 C 8,2 C 42 % 40 % 1019,4 hPa 0,0 l/m 0,0 km/h (0 Bft) N 1,00 h 10,8 C 32,8 C 0,0 km/h (0 Bft)
06.07.2023 19:00 24,4 C 19,6 C 22,7 C 32,8 C 32,8 C 8,4 C 43 % 41 % 1019,5 hPa 0,0 l/m 0,0 km/h (0 Bft) N 1,00 h 10,9 C 32,8 C 0,0 km/h (0 Bft)
06.07.2023 20:00 22,8 C 19,7 C 20,7 C 32,8 C 32,8 C 10,0 C 47 % 45 % 1019,6 hPa 0,0 l/m 0,0 km/h (0 Bft) N 1,00 h 10,9 C 32,8 C 0,0 km/h (0 Bft)
06.07.2023 21:00 19,3 C 19,7 C 17,3 C 25,3 C 24,7 C 6,3 C 58 % 55 % 1020,2 hPa 0,0 l/m 0,0 km/h (0 Bft) N 0,25 h 10,7 C 24,7 C 0,0 km/h (0 Bft)
06.07.2023 22:00 16,9 C 19,7 C 15,5 C 16,3 C 15,0 C 0,0 C 66 % 62 % 1021,0 hPa 0,0 l/m 0,0 km/h (0 Bft) N 0,00 h 10,6 C 15,0 C 0,0 km/h (0 Bft)
06.07.2023 23:00 14,9 C 19,7 C 13,8 C 14,3 C 13,0 C 0,0 C 74 % 68 % 1021,6 hPa 0,0 l/m 0,0 km/h (0 Bft) N 0,00 h 10,3 C 13,0 C 0,0 km/h (0 Bft)
07.07.2023 00:00 13,5 C 19,7 C 12,5 C 12,8 C 11,6 C 0,0 C 78 % 71 % 1021,9 hPa 0,0 l/m 0,0 km/h (0 Bft) N 0,00 h 9,6 C 11,6 C 0,0 km/h (0 Bft)
07.07.2023 01:00 12,1 C 19,6 C 11,5 C 11,6 C 10,5 C 0,0 C 81 % 73 % 1022,0 hPa 0,0 l/m 0,0 km/h (0 Bft) N 0,00 h 8,9 C 10,5 C 0,0 km/h (0 Bft)
07.07.2023 02:00 11,4 C 19,5 C 10,8 C 10,9 C 9,9 C 0,0 C 82 % 75 % 1022,2 hPa 0,0 l/m 0,0 km/h (0 Bft) N 0,00 h 8,5 C 9,9 C 0,0 km/h (0 Bft)
07.07.2023 03:00 10,7 C 19,5 C 10,2 C 10,3 C 9,4 C 0,0 C 84 % 75 % 1022,3 hPa 0,0 l/m 0,0 km/h (0 Bft) N 0,00 h 8,0 C 9,4 C 0,0 km/h (0 Bft)
07.07.2023 04:00 10,0 C 19,3 C 9,7 C 9,6 C 8,8 C 0,0 C 85 % 75 % 1022,4 hPa 0,0 l/m 0,0 km/h (0 Bft) N 0,00 h 7,6 C 8,8 C 0,0 km/h (0 Bft)
07.07.2023 05:00 9,6 C 19,1 C 9,4 C 9,2 C 8,5 C 0,0 C 85 % 76 % 1022,5 hPa 0,0 l/m 0,0 km/h (0 Bft) N 0,00 h 7,3 C 8,5 C 0,0 km/h (0 Bft)
07.07.2023 06:00 9,8 C 18,9 C 9,7 C 9,7 C 9,3 C 0,0 C 87 % 77 % 1023,4 hPa 0,0 l/m 0,0 km/h (0 Bft) N 0,00 h 7,7 C 9,3 C 0,0 km/h (0 Bft)
07.07.2023 07:00 12,0 C 18,5 C 12,7 C 21,8 C 21,8 C 9,8 C 88 % 76 % 1023,2 hPa 0,0 l/m 0,0 km/h (0 Bft) N 0,83 h 10,1 C 21,8 C 0,0 km/h (0 Bft)
07.07.2023 08:00 17,4 C 18,4 C 15,0 C 30,4 C 30,4 C 13,0 C 78 % 71 % 1023,6 hPa 0,0 l/m 0,0 km/h (0 Bft) N 1,00 h 13,5 C 30,4 C 0,0 km/h (0 Bft)
07.07.2023 09:00 21,0 C 18,4 C 17,7 C 30,5 C 30,5 C 9,5 C 65 % 66 % 1023,7 hPa 0,0 l/m 0,0 km/h (0 Bft) N 1,00 h 14,2 C 30,5 C 0,0 km/h (0 Bft)
07.07.2023 10:00 22,4 C 18,4 C 20,4 C 30,1 C 30,1 C 7,7 C 60 % 57 % 1023,7 hPa 0,0 l/m 0,1 km/h (0 Bft) N 1,00 h 14,2 C 30,1 C 0,0 km/h (0 Bft)
07.07.2023 11:00 24,4 C 18,6 C 21,9 C 33,0 C 33,0 C 8,7 C 50 % 51 % 1023,7 hPa 0,0 l/m 0,1 km/h (0 Bft) N 1,00 h 13,2 C 33,0 C 0,5 km/h (0 Bft)
07.07.2023 12:00 26,5 C 18,8 C 23,1 C 34,2 C 34,2 C 7,7 C 40 % 44 % 1023,6 hPa 0,0 l/m 0,0 km/h (0 Bft) N 1,00 h 11,8 C 34,2 C 0,0 km/h (0 Bft)
07.07.2023 13:00 29,4 C 18,9 C 24,8 C 34,7 C 34,7 C 5,4 C 34 % 40 % 1023,5 hPa 0,0 l/m 0,0 km/h (0 Bft) N 1,00 h 12,0 C 34,7 C 0,0 km/h (0 Bft)
07.07.2023 14:00 29,3 C 19,1 C 26,8 C 35,1 C 35,1 C 5,8 C 34 % 37 % 1022,9 hPa 0,0 l/m 0,1 km/h (0 Bft) N 1,00 h 11,6 C 35,1 C 0,0 km/h (0 Bft)
07.07.2023 15:00 28,4 C 19,4 C 27,7 C 35,4 C 35,4 C 7,0 C 35 % 36 % 1022,4 hPa 0,0 l/m 0,6 km/h (0 Bft) O-NO 1,00 h 11,2 C 35,4 C 0,8 km/h (0 Bft)
07.07.2023 16:00 28,0 C 19,7 C 27,8 C 34,4 C 34,4 C 6,4 C 36 % 35 % 1022,3 hPa 0,0 l/m 0,7 km/h (0 Bft) N 1,00 h 11,4 C 34,4 C 1,7 km/h (1 Bft)
07.07.2023 17:00 28,2 C 19,9 C 28,0 C 30,8 C 30,8 C 2,6 C 36 % 33 % 1021,9 hPa 0,0 l/m 0,3 km/h (0 Bft) N 0,25 h 11,5 C 30,8 C 0,9 km/h (0 Bft)
07.07.2023 18:00 28,1 C 20,0 C 27,2 C 29,0 C 29,0 C 0,9 C 36 % 34 % 1021,5 hPa 0,0 l/m 0,2 km/h (0 Bft) N 0,00 h 11,7 C 29,0 C 0,5 km/h (0 Bft)
07.07.2023 19:00 27,4 C 20,2 C 26,4 C 28,9 C 28,9 C 1,5 C 39 % 36 % 1021,4 hPa 0,0 l/m 0,1 km/h (0 Bft) N 0,00 h 12,2 C 28,9 C 0,3 km/h (0 Bft)
07.07.2023 20:00 25,9 C 20,3 C 24,7 C 27,7 C 27,7 C 1,8 C 43 % 39 % 1021,4 hPa 0,0 l/m 0,0 km/h (0 Bft) N 0,67 h 12,4 C 27,7 C 0,0 km/h (0 Bft)
07.07.2023 21:00 23,3 C 20,5 C 21,3 C 27,7 C 27,7 C 4,4 C 50 % 47 % 1021,5 hPa 0,0 l/m 0,0 km/h (0 Bft) N 0,25 h 12,2 C 27,7 C 0,0 km/h (0 Bft)
07.07.2023 22:00 20,1 C 20,4 C 18,2 C 24,6 C 24,1 C 4,8 C 61 % 58 % 1021,6 hPa 0,0 l/m 0,0 km/h (0 Bft) N 0,00 h 12,2 C 24,1 C 0,0 km/h (0 Bft)
07.07.2023 23:00 17,8 C 20,5 C 16,4 C 17,1 C 15,9 C 0,0 C 70 % 66 % 1021,9 hPa 0,0 l/m 0,0 km/h (0 Bft) N 0,00 h 12,2 C 15,9 C 0,0 km/h (0 Bft)
08.07.2023 00:00 16,1 C 20,4 C 15,2 C 15,6 C 14,5 C 0,0 C 75 % 69 % 1021,8 hPa 0,0 l/m 0,0 km/h (0 Bft) N 0,00 h 11,8 C 14,5 C 0,0 km/h (0 Bft)
08.07.2023 01:00 14,8 C 20,4 C 14,1 C 14,3 C 13,3 C 0,0 C 78 % 72 % 1021,3 hPa 0,0 l/m 0,0 km/h (0 Bft) N 0,00 h 11,1 C 13,3 C 0,0 km/h (0 Bft)
08.07.2023 02:00 13,9 C 20,3 C 13,2 C 13,4 C 12,5 C 0,0 C 81 % 74 % 1021,0 hPa 0,0 l/m 0,0 km/h (0 Bft) N 0,00 h 10,7 C 12,5 C 0,0 km/h (0 Bft)
08.07.2023 03:00 13,0 C 20,2 C 12,5 C 12,6 C 11,7 C 0,0 C 82 % 75 % 1021,1 hPa 0,0 l/m 0,0 km/h (0 Bft) N 0,00 h 10,1 C 11,7 C 0,0 km/h (0 Bft)
08.07.2023 04:00 12,3 C 20,0 C 11,9 C 12,0 C 11,2 C 0,0 C 83 % 75 % 1020,9 hPa 0,0 l/m 0,0 km/h (0 Bft) N 0,00 h 9,6 C 11,2 C 0,0 km/h (0 Bft)
08.07.2023 05:00 11,7 C 19,9 C 11,3 C 11,3 C 10,5 C 0,0 C 85 % 76 % 1021,1 hPa 0,0 l/m 0,0 km/h (0 Bft) N 0,00 h 9,2 C 10,5 C 0,0 km/h (0 Bft)
08.07.2023 06:00 11,8 C 19,5 C 11,9 C 11,8 C 11,5 C 0,1 C 86 % 76 % 1021,3 hPa 0,0 l/m 0,0 km/h (0 Bft) N 0,00 h 9,6 C 11,5 C 0,0 km/h (0 Bft)
08.07.2023 07:00 14,2 C 19,3 C 14,5 C 23,6 C 23,6 C 9,4 C 87 % 73 % 1021,6 hPa 0,0 l/m 0,0 km/h (0 Bft) N 0,83 h 12,1 C 23,6 C 0,0 km/h (0 Bft)
08.07.2023 08:00 20,2 C 19,1 C 16,9 C 33,2 C 33,2 C 12,9 C 73 % 71 % 1021,8 hPa 0,0 l/m 0,0 km/h (0 Bft) N 1,00 h 15,2 C 33,2 C 0,0 km/h (0 Bft)
08.07.2023 09:00 24,5 C 19,2 C 19,4 C 34,2 C 34,2 C 9,7 C 55 % 65 % 1021,8 hPa 0,0 l/m 0,0 km/h (0 Bft) N 1,00 h 14,9 C 34,2 C 0,0 km/h (0 Bft)
08.07.2023 10:00 25,7 C 19,2 C 22,2 C 32,4 C 32,4 C 6,7 C 51 % 57 % 1021,5 hPa 0,0 l/m 0,0 km/h (0 Bft) N 1,00 h 14,9 C 32,4 C 0,0 km/h (0 Bft)
08.07.2023 11:00 27,6 C 19,4 C 25,1 C 33,1 C 33,1 C 5,5 C 49 % 52 % 1021,5 hPa 0,0 l/m 0,0 km/h (0 Bft) N 1,00 h 15,8 C 33,1 C 0,0 km/h (0 Bft)
08.07.2023 12:00 29,2 C 19,6 C 26,8 C 34,4 C 34,4 C 5,3 C 43 % 45 % 1021,4 hPa 0,0 l/m 0,4 km/h (0 Bft) NO 1,00 h 15,2 C 34,4 C 2,5 km/h (1 Bft)
08.07.2023 13:00 30,3 C 19,8 C 28,1 C 35,8 C 35,8 C 5,5 C 36 % 38 % 1021,0 hPa 0,0 l/m 0,6 km/h (0 Bft) NO 1,00 h 13,5 C 35,8 C 1,2 km/h (1 Bft)
08.07.2023 14:00 31,0 C 20,1 C 29,3 C 37,2 C 37,2 C 6,2 C 34 % 36 % 1020,6 hPa 0,0 l/m 0,2 km/h (0 Bft) N 0,73 h 13,1 C 37,2 C 0,4 km/h (0 Bft)
08.07.2023 15:00 30,8 C 20,3 C 29,7 C 35,8 C 35,8 C 5,0 C 36 % 37 % 1020,1 hPa 0,0 l/m 0,1 km/h (0 Bft) N 1,23 h 13,7 C 35,8 C 0,4 km/h (0 Bft)
08.07.2023 16:00 31,0 C 20,5 C 30,2 C 37,3 C 37,3 C 6,3 C 35 % 37 % 1020,2 hPa 0,0 l/m 0,5 km/h (0 Bft) NO 1,00 h 13,8 C 37,3 C 0,7 km/h (0 Bft)
08.07.2023 17:00 31,1 C 20,7 C 30,4 C 33,9 C 33,9 C 2,8 C 35 % 36 % 1020,1 hPa 0,0 l/m 0,1 km/h (0 Bft) N 0,33 h 13,8 C 33,9 C 0,0 km/h (0 Bft)
08.07.2023 18:00 30,5 C 20,9 C 29,3 C 31,4 C 31,4 C 0,8 C 36 % 36 % 1019,9 hPa 0,0 l/m 0,3 km/h (0 Bft) O 0,00 h 13,8 C 31,4 C 0,5 km/h (0 Bft)
08.07.2023 19:00 29,6 C 21,0 C 28,4 C 30,8 C 30,8 C 1,2 C 39 % 38 % 1019,9 hPa 0,0 l/m 0,5 km/h (0 Bft) N 0,00 h 13,9 C 30,8 C 1,8 km/h (1 Bft)
08.07.2023 20:00 27,8 C 21,2 C 25,8 C 28,9 C 28,9 C 1,1 C 44 % 44 % 1019,9 hPa 0,0 l/m 0,1 km/h (0 Bft) N 0,50 h 14,3 C 28,9 C 0,2 km/h (0 Bft)
08.07.2023 21:00 24,7 C 21,3 C 22,3 C 24,2 C 23,1 C 0,0 C 52 % 52 % 1020,2 hPa 0,0 l/m 0,0 km/h (0 Bft) N 0,00 h 14,0 C 23,1 C 0,0 km/h (0 Bft)
08.07.2023 22:00 21,6 C 21,2 C 19,7 C 20,9 C 19,5 C 0,0 C 63 % 61 % 1020,7 hPa 0,0 l/m 0,0 km/h (0 Bft) N 0,00 h 14,2 C 19,5 C 0,0 km/h (0 Bft)
08.07.2023 23:00 19,3 C 21,2 C 18,1 C 18,7 C 17,6 C 0,0 C 71 % 66 % 1021,0 hPa 0,0 l/m 0,0 km/h (0 Bft) N 0,00 h 13,9 C 17,6 C 0,0 km/h (0 Bft)
09.07.2023 00:00 17,7 C 21,1 C 16,7 C 17,1 C 15,9 C 0,0 C 75 % 70 % 1021,2 hPa 0,0 l/m 0,0 km/h (0 Bft) N 0,00 h 13,1 C 15,9 C 0,0 km/h (0 Bft)
09.07.2023 01:00 16,4 C 21,1 C 15,7 C 15,9 C 14,9 C 0,0 C 78 % 73 % 1020,9 hPa 0,0 l/m 0,0 km/h (0 Bft) N 0,00 h 12,6 C 14,9 C 0,0 km/h (0 Bft)
09.07.2023 02:00 15,5 C 21,0 C 15,0 C 15,1 C 14,2 C 0,0 C 80 % 75 % 1020,7 hPa 0,0 l/m 0,0 km/h (0 Bft) N 0,00 h 12,2 C 14,2 C 0,0 km/h (0 Bft)
09.07.2023 03:00 14,8 C 20,8 C 14,4 C 14,4 C 13,6 C 0,0 C 83 % 76 % 1020,9 hPa 0,0 l/m 0,0 km/h (0 Bft) N 0,00 h 11,9 C 13,6 C 0,0 km/h (0 Bft)
09.07.2023 04:00 13,9 C 20,7 C 13,4 C 13,5 C 12,7 C 0,0 C 84 % 76 % 1021,0 hPa 0,0 l/m 0,0 km/h (0 Bft) N 0,00 h 11,2 C 12,7 C 0,0 km/h (0 Bft)
09.07.2023 05:00 13,5 C 20,6 C 13,2 C 13,1 C 12,4 C 0,0 C 85 % 77 % 1021,2 hPa 0,0 l/m 0,0 km/h (0 Bft) N 0,00 h 11,0 C 12,4 C 0,0 km/h (0 Bft)
09.07.2023 06:00 13,6 C 20,2 C 13,6 C 13,7 C 13,5 C 0,2 C 86 % 77 % 1021,4 hPa 0,0 l/m 0,0 km/h (0 Bft) N 0,00 h 11,4 C 13,5 C 0,0 km/h (0 Bft)
09.07.2023 07:00 16,3 C 19,8 C 16,5 C 26,6 C 26,6 C 10,3 C 87 % 72 % 1021,8 hPa 0,0 l/m 0,0 km/h (0 Bft) N 0,83 h 14,0 C 26,6 C 0,0 km/h (0 Bft)
09.07.2023 08:00 21,8 C 19,8 C 18,6 C 34,6 C 34,6 C 12,9 C 71 % 72 % 1022,0 hPa 0,0 l/m 0,0 km/h (0 Bft) N 1,00 h 16,2 C 34,6 C 0,0 km/h (0 Bft)
09.07.2023 09:00 26,3 C 19,8 C 21,0 C 35,3 C 35,3 C 9,1 C 57 % 68 % 1022,0 hPa 0,0 l/m 0,0 km/h (0 Bft) N 1,00 h 16,9 C 35,3 C 0,0 km/h (0 Bft)
09.07.2023 10:00 28,1 C 19,9 C 24,4 C 35,5 C 35,5 C 7,4 C 46 % 53 % 1022,0 hPa 0,0 l/m 0,0 km/h (0 Bft) N 1,00 h 15,3 C 35,5 C 0,0 km/h (0 Bft)
09.07.2023 11:00 29,7 C 20,0 C 27,2 C 36,7 C 36,7 C 6,9 C 43 % 46 % 1021,9 hPa 0,0 l/m 0,2 km/h (0 Bft) N 1,00 h 15,7 C 36,7 C 0,8 km/h (0 Bft)
09.07.2023 12:00 31,2 C 20,3 C 29,1 C 37,2 C 37,2 C 6,0 C 36 % 40 % 1022,0 hPa 0,0 l/m 1,3 km/h (1 Bft) O-NO 1,00 h 14,3 C 37,2 C 3,9 km/h (1 Bft)
09.07.2023 13:00 33,0 C 20,5 C 30,3 C 38,2 C 38,2 C 5,1 C 32 % 36 % 1021,8 hPa 0,0 l/m 1,2 km/h (1 Bft) NO 1,00 h 13,9 C 38,2 C 1,5 km/h (1 Bft)
09.07.2023 14:00 34,4 C 20,8 C 32,8 C 39,9 C 39,9 C 5,5 C 30 % 37 % 1021,5 hPa 0,0 l/m 0,6 km/h (0 Bft) N-NO 1,00 h 14,1 C 39,9 C 0,7 km/h (0 Bft)
09.07.2023 15:00 34,3 C 21,1 C 32,8 C 40,9 C 40,9 C 6,6 C 30 % 35 % 1021,0 hPa 0,0 l/m 0,2 km/h (0 Bft) N 1,00 h 14,2 C 40,9 C 0,6 km/h (0 Bft)
09.07.2023 16:00 34,2 C 21,3 C 32,6 C 40,6 C 40,6 C 6,5 C 28 % 34 % 1020,6 hPa 0,0 l/m 0,1 km/h (0 Bft) N 1,00 h 13,2 C 40,6 C 0,0 km/h (0 Bft)
09.07.2023 17:00 33,5 C 21,5 C 32,6 C 35,8 C 35,8 C 2,4 C 30 % 33 % 1019,9 hPa 0,0 l/m 0,8 km/h (0 Bft) O-NO 0,25 h 13,6 C 35,8 C 1,9 km/h (1 Bft)
09.07.2023 18:00 32,6 C 21,7 C 31,2 C 33,3 C 33,3 C 0,7 C 32 % 34 % 1019,5 hPa 0,0 l/m 1,8 km/h (1 Bft) N-NO 0,00 h 13,9 C 33,3 C 2,8 km/h (1 Bft)
09.07.2023 19:00 31,1 C 21,8 C 29,6 C 31,5 C 31,5 C 0,4 C 37 % 38 % 1019,5 hPa 0,0 l/m 2,1 km/h (1 Bft) O-NO 0,00 h 14,8 C 31,5 C 2,5 km/h (1 Bft)
09.07.2023 20:00 28,5 C 21,9 C 25,9 C 28,7 C 28,1 C 0,5 C 46 % 49 % 1019,8 hPa 0,0 l/m 0,0 km/h (0 Bft) N 0,12 h 15,7 C 28,1 C 0,0 km/h (0 Bft)
09.07.2023 21:00 25,6 C 22,0 C 23,3 C 24,9 C 23,5 C 0,0 C 57 % 58 % 1019,6 hPa 0,0 l/m 0,0 km/h (0 Bft) N 0,00 h 16,3 C 23,5 C 0,0 km/h (0 Bft)
09.07.2023 22:00 23,2 C 22,0 C 21,8 C 22,6 C 21,6 C 0,0 C 66 % 64 % 1019,4 hPa 0,0 l/m 0,0 km/h (0 Bft) N 0,00 h 16,4 C 21,6 C 0,0 km/h (0 Bft)
09.07.2023 23:00 21,7 C 22,0 C 20,8 C 21,4 C 20,7 C 0,0 C 70 % 67 % 1019,5 hPa 0,0 l/m 0,0 km/h (0 Bft) N 0,00 h 16,1 C 20,7 C 0,0 km/h (0 Bft)
Min-Datum _ 07.07.23 07.07.23 07.07.23 07.07.23 07.07.23 03.07.23 09.07.23 09.07.23 03.07.23 - 03.07.23 - - 06.07.23 07.07.23 03.07.23
_ Min-Zeit 05:45 08:26 05:55 05:05 05:05 00:00 14:50 15:00 03:55 - 00:00 - - 05:45 05:05 00:00
Minimum _ 9,5 C 18,3 C 9,2 C 9,2 C 8,4 C 0,0 C 28 % 30 % 1010,2 hPa - 0,0 km/h (0 Bft) - - 6,7 C 8,4 C 0,0 km/h (0 Bft)
Max-Datum _ 09.07.23 09.07.23 09.07.23 09.07.23 09.07.23 08.07.23 07.07.23 05.07.23 07.07.23 03.07.23 09.07.23 - 04.07.23 09.07.23 09.07.23 05.07.23
_ Max-Zeit 14:40 22:11 14:35 16:05 16:05 08:41 07:15 05:10 11:35 00:00 18:55 - 13:10 09:10 16:05 08:00
Maximum _ 35,5 C 22,1 C 33,9 C 41,5 C 41,5 C 14,5 C 88 % 78 % 1023,9 hPa 0,0 l/m 6,1 km/h
N-NO (2 Bft)
- 1,00 h 17,9 C 41,5 C 14,8 km/h
S (3 Bft)
Durchschnitt _ 20,2 C 19,8 C 19,2 C 23,1 C 22,8 C 3,0 C 61 % 57 % 1017,8 hPa #0,0 l/m 0,1 km/h (0 Bft) O-NO #65:27 h 11,6 C 22,8 C 0,3 km/h (0 Bft)
2023 www.wetterstation-wechselburg.de